Renville, Minnesota
Current Conditions -  °F | °C
As of 9:33 AM on Saturday 25 Oct 2014 (Local Time) from KOVL Reporting Station
Clear Clear  
Wind Chill: 54°   Ceiling: Unl
Heat Index: 54°   Visibility: 10mi
Dew Point: 37°   Wind: 9mph
Humidity: 54%   Direction: 320°NW
Pressure: 30.1"   Gusts: NA
Location:  44.79°N, 95.21°W
Report Text: KOVL 251433Z AUTO 32008KT 10SM CLR 12/03 A3010 RMK AO2
Loading
Personal Weather Stations






























Interactive Weather Map
Tropical Storm Tracking
New forecast layout! Learn more

10-Day Weather Forecast

Advertisements
Track Severe Weather on mobile